createdAt,value
2018-04-30T00:00:39.743Z,6.60
2018-04-30T00:01:39.769Z,7.50
2018-04-30T00:02:39.795Z,6.60
2018-04-30T00:03:39.807Z,7.00
2018-04-30T00:04:39.833Z,7.00
2018-04-30T00:05:39.859Z,7.10
2018-04-30T00:06:39.873Z,7.20
2018-04-30T00:07:39.899Z,7.20
2018-04-30T00:08:39.926Z,6.90
2018-04-30T00:09:39.939Z,6.90
2018-04-30T00:10:39.965Z,6.70
2018-04-30T00:11:39.991Z,7.30
2018-04-30T00:12:40.004Z,6.50
2018-04-30T00:13:40.034Z,6.60
2018-04-30T00:14:40.056Z,7.20
2018-04-30T00:15:40.069Z,7.20
2018-04-30T00:16:40.095Z,7.70
2018-04-30T00:17:40.120Z,7.10
2018-04-30T00:18:40.136Z,7.20
2018-04-30T00:19:40.162Z,7.10
2018-04-30T00:20:40.187Z,7.00
2018-04-30T00:21:40.199Z,6.50
2018-04-30T00:23:40.252Z,6.40
2018-04-30T00:24:40.266Z,7.50
2018-04-30T00:25:40.291Z,6.90
2018-04-30T00:26:40.317Z,7.20
2018-04-30T00:27:40.344Z,7.10
2018-04-30T00:28:40.356Z,7.20
2018-04-30T00:29:40.382Z,7.60
2018-04-30T00:30:40.399Z,7.00
2018-04-30T00:31:40.426Z,6.80
2018-04-30T00:32:40.449Z,7.60
2018-04-30T00:33:40.473Z,7.60
2018-04-30T00:34:40.487Z,7.10
2018-04-30T00:35:40.514Z,7.50
2018-04-30T00:36:40.542Z,7.30
2018-04-30T00:37:40.555Z,7.70
2018-04-30T00:38:40.578Z,7.80
2018-04-30T00:39:40.592Z,7.30
2018-04-30T00:40:40.618Z,7.20
2018-04-30T00:41:40.644Z,7.20
2018-04-30T00:42:40.660Z,6.80
2018-04-30T00:43:40.684Z,7.40
2018-04-30T00:44:40.710Z,7.40
2018-04-30T00:45:40.722Z,7.50
2018-04-30T00:46:40.749Z,7.50
2018-04-30T00:47:40.779Z,7.70
2018-04-30T00:48:40.789Z,7.70
2018-04-30T00:49:40.818Z,8.10
2018-04-30T00:50:41.042Z,7.10
2018-04-30T00:51:40.854Z,7.20
2018-04-30T00:52:40.879Z,7.10
2018-04-30T00:53:40.909Z,7.20
2018-04-30T00:54:40.919Z,7.70
2018-04-30T00:55:40.949Z,7.30
2018-04-30T00:56:40.972Z,7.80
2018-04-30T00:57:40.984Z,8.00
2018-04-30T00:58:41.011Z,8.10
2018-04-30T00:59:41.036Z,8.40
2018-04-30T01:00:41.051Z,7.90
2018-04-30T01:01:41.278Z,7.30
2018-04-30T01:02:41.105Z,7.80
2018-04-30T01:03:41.161Z,7.90
2018-04-30T01:04:41.157Z,8.30
2018-04-30T01:05:41.155Z,6.80
2018-04-30T01:06:41.181Z,7.30
2018-04-30T01:07:41.211Z,8.10
2018-04-30T01:08:41.571Z,7.60
2018-04-30T01:09:41.247Z,8.00
2018-04-30T01:10:41.271Z,8.20
2018-04-30T01:11:41.287Z,8.10
2018-04-30T01:12:41.311Z,8.30
2018-04-30T01:13:41.339Z,8.70
2018-04-30T01:14:41.352Z,8.50
2018-04-30T01:15:41.376Z,8.00
2018-04-30T01:16:41.402Z,8.60
2018-04-30T01:17:41.418Z,8.00
2018-04-30T01:18:41.443Z,8.10
2018-04-30T01:19:41.468Z,8.70
2018-04-30T01:20:41.481Z,8.20
2018-04-30T01:21:41.569Z,8.60
2018-04-30T01:22:41.533Z,8.50
2018-04-30T01:23:41.547Z,8.40
2018-04-30T01:24:41.575Z,8.90
2018-04-30T01:25:41.587Z,9.10
2018-04-30T01:26:41.962Z,8.90
2018-04-30T01:27:41.638Z,8.70
2018-04-30T01:28:41.653Z,9.70
2018-04-30T01:29:41.679Z,9.00
2018-04-30T01:30:41.704Z,10.20
2018-04-30T01:31:41.730Z,9.00
2018-04-30T01:32:41.742Z,8.70
2018-04-30T01:33:41.769Z,9.10
2018-04-30T01:34:41.794Z,9.60
2018-04-30T01:35:41.809Z,9.10
2018-04-30T01:36:41.836Z,9.10
2018-04-30T01:37:41.848Z,9.90
2018-04-30T01:38:41.887Z,10.20
2018-04-30T01:39:41.899Z,9.60
2018-04-30T01:40:41.915Z,9.80
2018-04-30T01:41:41.939Z,9.10
2018-04-30T01:42:41.953Z,11.00
2018-04-30T01:43:41.978Z,10.20
2018-04-30T01:44:42.005Z,9.80
2018-04-30T01:45:42.019Z,10.40
2018-04-30T01:46:42.045Z,10.90
2018-04-30T01:47:42.071Z,10.60
2018-04-30T01:48:42.083Z,11.20
2018-04-30T01:49:42.111Z,10.10
2018-04-30T01:50:42.136Z,10.90
2018-04-30T01:51:42.149Z,10.90
2018-04-30T01:52:42.175Z,10.20
2018-04-30T01:53:42.189Z,10.80
2018-04-30T01:54:42.215Z,11.50
2018-04-30T01:55:42.240Z,10.70
2018-04-30T01:56:42.255Z,11.50
2018-04-30T01:57:42.280Z,11.00
2018-04-30T01:58:42.306Z,11.00
2018-04-30T01:59:42.318Z,12.20
2018-04-30T02:00:42.346Z,11.10
2018-04-30T02:01:42.370Z,11.60
2018-04-30T02:02:42.390Z,11.60
2018-04-30T02:03:42.411Z,11.70
2018-04-30T02:04:42.424Z,12.10
2018-04-30T02:05:42.450Z,11.10
2018-04-30T02:06:42.478Z,11.80
2018-04-30T02:07:42.492Z,11.90
2018-04-30T02:08:42.515Z,12.50
2018-04-30T02:09:42.541Z,12.20
2018-04-30T02:10:42.555Z,11.90
2018-04-30T02:11:42.580Z,12.30
2018-04-30T02:12:42.595Z,13.60
2018-04-30T02:13:42.620Z,12.00
2018-04-30T02:14:42.647Z,13.00
2018-04-30T02:15:42.659Z,12.70
2018-04-30T02:16:42.686Z,12.50
2018-04-30T02:17:42.711Z,12.60
2018-04-30T02:18:42.728Z,13.60
2018-04-30T02:19:42.818Z,13.10
2018-04-30T02:20:42.764Z,13.50
2018-04-30T02:21:42.790Z,13.50
2018-04-30T02:22:42.816Z,13.50
2018-04-30T02:23:42.831Z,13.50
2018-04-30T02:24:42.856Z,13.90
2018-04-30T02:25:42.871Z,13.30
2018-04-30T02:26:42.895Z,13.00
2018-04-30T02:27:42.922Z,13.00
2018-04-30T02:28:42.947Z,12.90
2018-04-30T02:29:42.962Z,14.40
2018-04-30T02:30:42.988Z,14.20
2018-04-30T02:31:43.001Z,14.10
2018-04-30T02:32:43.027Z,14.50
2018-04-30T02:33:43.080Z,13.90
2018-04-30T02:34:43.070Z,14.10
2018-04-30T02:35:43.092Z,13.90
2018-04-30T02:36:43.105Z,14.20
2018-04-30T02:37:43.131Z,13.40
2018-04-30T02:38:43.157Z,13.90
2018-04-30T02:39:43.171Z,14.60
2018-04-30T02:40:43.197Z,13.20
2018-04-30T02:41:43.211Z,13.80
2018-04-30T02:42:43.236Z,14.10
2018-04-30T02:43:43.263Z,14.00
2018-04-30T02:44:43.276Z,13.80
2018-04-30T02:45:43.302Z,14.10
2018-04-30T02:46:43.327Z,14.20
2018-04-30T02:47:43.341Z,14.60
2018-04-30T02:48:43.367Z,14.10
2018-04-30T02:49:43.380Z,13.70
2018-04-30T02:50:43.407Z,14.20
2018-04-30T02:51:43.454Z,14.60
2018-04-30T02:52:43.466Z,14.20
2018-04-30T02:53:43.493Z,15.10
2018-04-30T02:54:43.507Z,13.90
2018-04-30T02:55:43.531Z,14.20
2018-04-30T02:56:43.558Z,14.50
2018-04-30T02:57:43.572Z,14.90
2018-04-30T02:58:43.599Z,13.80
2018-04-30T02:59:43.623Z,13.80
2018-04-30T03:00:43.629Z,14.40
2018-04-30T03:01:43.657Z,14.90
2018-04-30T03:02:43.668Z,15.30
2018-04-30T03:03:43.693Z,14.50
2018-04-30T03:04:43.720Z,15.10
2018-04-30T03:05:43.734Z,14.10
2018-04-30T03:06:43.763Z,14.70
2018-04-30T03:07:43.775Z,15.20
2018-04-30T03:08:43.799Z,15.50
2018-04-30T03:09:43.859Z,15.00
2018-04-30T03:10:43.826Z,15.00
2018-04-30T03:11:43.852Z,14.90
2018-04-30T03:12:43.867Z,14.20
2018-04-30T03:13:43.891Z,14.70
2018-04-30T03:14:43.916Z,14.80
2018-04-30T03:15:43.933Z,14.90
2018-04-30T03:16:43.957Z,14.60
2018-04-30T03:17:43.970Z,14.40
2018-04-30T03:18:43.996Z,14.80
2018-04-30T03:19:44.035Z,14.10
2018-04-30T03:20:44.036Z,14.20
2018-04-30T03:21:44.061Z,14.60
2018-04-30T03:22:44.088Z,13.90
2018-04-30T03:23:44.100Z,15.00
2018-04-30T03:24:44.139Z,13.80
2018-04-30T03:25:44.145Z,14.50
2018-04-30T03:26:44.165Z,15.30
2018-04-30T03:27:44.191Z,15.30
2018-04-30T03:28:44.204Z,14.40
2018-04-30T03:29:44.231Z,14.90
2018-04-30T03:30:44.244Z,15.30
2018-04-30T03:31:44.271Z,15.30
2018-04-30T03:32:44.283Z,15.10
2018-04-30T03:33:44.311Z,15.00
2018-04-30T03:34:44.336Z,15.50
2018-04-30T03:35:44.350Z,14.80
2018-04-30T03:36:44.376Z,14.30
2018-04-30T03:37:44.388Z,14.30
2018-04-30T03:38:44.427Z,14.50
2018-04-30T03:39:44.441Z,13.50
2018-04-30T03:40:44.454Z,14.40
2018-04-30T03:41:44.484Z,14.50
2018-04-30T03:42:44.495Z,13.70
2018-04-30T03:43:44.518Z,14.50
2018-04-30T03:44:44.545Z,14.10
2018-04-30T03:45:44.560Z,13.90
2018-04-30T03:46:44.586Z,15.00
2018-04-30T03:47:44.598Z,13.40
2018-04-30T03:48:44.624Z,14.30
2018-04-30T03:49:44.699Z,13.50
2018-04-30T03:50:44.665Z,13.70
2018-04-30T03:51:44.690Z,13.30
2018-04-30T03:52:44.715Z,14.00
2018-04-30T03:53:44.730Z,14.10
2018-04-30T03:54:44.744Z,13.20
2018-04-30T03:55:44.768Z,13.60
2018-04-30T03:56:44.795Z,14.10
2018-04-30T03:57:44.807Z,14.30
2018-04-30T03:58:44.837Z,12.90
2018-04-30T03:59:44.848Z,14.30
2018-04-30T04:00:44.878Z,14.40
2018-04-30T04:01:44.900Z,14.40
2018-04-30T04:02:44.913Z,13.90
2018-04-30T04:03:44.938Z,13.90
2018-04-30T04:04:44.953Z,14.10
2018-04-30T04:05:44.979Z,14.00
2018-04-30T04:06:45.004Z,13.90
2018-04-30T04:07:45.018Z,13.10
2018-04-30T04:08:45.045Z,13.80
2018-04-30T04:09:45.058Z,13.30
2018-04-30T04:10:45.084Z,12.90
2018-04-30T04:11:45.098Z,13.40
2018-04-30T04:12:45.187Z,13.10
2018-04-30T04:13:45.150Z,13.70
2018-04-30T04:14:45.162Z,13.50
2018-04-30T04:15:45.189Z,13.20
2018-04-30T04:16:45.202Z,14.00
2018-04-30T04:17:45.227Z,13.30
2018-04-30T04:18:45.244Z,12.70
2018-04-30T04:19:45.267Z,13.00
2018-04-30T04:20:45.298Z,12.70
2018-04-30T04:21:45.309Z,12.40
2018-04-30T04:22:45.332Z,12.50
2018-04-30T04:23:45.345Z,12.60
2018-04-30T04:24:45.372Z,12.90
2018-04-30T04:25:45.401Z,12.00
2018-04-30T04:26:45.411Z,12.30
2018-04-30T04:27:45.438Z,12.70
2018-04-30T04:28:45.459Z,12.30
2018-04-30T04:29:45.478Z,12.70
2018-04-30T04:30:45.491Z,12.80
2018-04-30T04:31:45.516Z,12.20
2018-04-30T04:32:45.541Z,12.70
2018-04-30T04:33:45.555Z,12.20
2018-04-30T04:34:45.583Z,12.00
2018-04-30T04:35:45.595Z,11.40
2018-04-30T04:36:45.620Z,11.60
2018-04-30T04:37:45.648Z,12.70
2018-04-30T04:38:45.660Z,12.00
2018-04-30T04:39:45.687Z,12.20
2018-04-30T04:40:45.699Z,11.90
2018-04-30T04:41:45.783Z,11.50
2018-04-30T04:42:45.752Z,11.90
2018-04-30T04:43:45.765Z,11.70
2018-04-30T04:44:45.791Z,12.20
2018-04-30T04:45:45.805Z,12.00
2018-04-30T04:46:45.831Z,11.90
2018-04-30T04:47:45.857Z,12.10
2018-04-30T04:48:45.870Z,11.40
2018-04-30T04:49:45.896Z,12.20
2018-04-30T04:50:45.910Z,11.30
2018-04-30T04:51:45.935Z,12.10
2018-04-30T04:52:45.949Z,11.80
2018-04-30T04:53:45.975Z,11.30
2018-04-30T04:54:46.003Z,11.10
2018-04-30T04:55:46.014Z,11.30
2018-04-30T04:56:46.040Z,11.60
2018-04-30T04:57:46.065Z,11.40
2018-04-30T04:58:46.113Z,11.00
2018-04-30T04:59:46.106Z,11.20
2018-04-30T05:00:46.119Z,10.60
2018-04-30T05:01:46.145Z,10.50
2018-04-30T05:02:46.170Z,10.80
2018-04-30T05:03:46.185Z,10.60
2018-04-30T05:04:46.211Z,11.10
2018-04-30T05:05:46.223Z,11.30
2018-04-30T05:06:46.253Z,10.30
2018-04-30T05:07:46.276Z,10.60
2018-04-30T05:08:46.290Z,10.50
2018-04-30T05:09:46.316Z,10.20
2018-04-30T05:10:46.347Z,11.20
2018-04-30T05:11:46.358Z,10.50
2018-04-30T05:12:46.380Z,10.20
2018-04-30T05:13:46.407Z,10.30
2018-04-30T05:14:46.420Z,10.50
2018-04-30T05:15:46.447Z,10.40
2018-04-30T05:16:46.464Z,10.80
2018-04-30T05:17:46.485Z,10.70
2018-04-30T05:18:46.510Z,10.20
2018-04-30T05:19:46.525Z,10.40
2018-04-30T05:20:46.552Z,10.20
2018-04-30T05:21:46.579Z,10.60
2018-04-30T05:22:46.591Z,10.70
2018-04-30T05:23:46.615Z,10.50
2018-04-30T05:24:46.644Z,10.90
2018-04-30T05:25:46.656Z,10.10
2018-04-30T05:26:46.683Z,10.40
2018-04-30T05:27:46.709Z,10.30
2018-04-30T05:28:46.723Z,10.30
2018-04-30T05:29:46.746Z,10.80
2018-04-30T05:30:46.781Z,10.40
2018-04-30T05:31:46.802Z,10.40
2018-04-30T05:32:46.814Z,9.70
2018-04-30T05:33:46.853Z,9.90
2018-04-30T05:34:46.852Z,10.40
2018-04-30T05:35:46.879Z,10.10
2018-04-30T05:36:46.904Z,9.70
2018-04-30T05:37:46.929Z,9.90
2018-04-30T05:38:46.943Z,10.00
2018-04-30T05:39:46.969Z,10.10
2018-04-30T05:40:46.996Z,9.60
2018-04-30T05:41:47.008Z,9.90
2018-04-30T05:42:47.034Z,9.20
2018-04-30T05:43:47.060Z,9.50
2018-04-30T05:44:47.091Z,9.50
2018-04-30T05:45:47.100Z,10.20
2018-04-30T05:46:47.126Z,9.60
2018-04-30T05:47:47.152Z,10.50
2018-04-30T05:48:47.166Z,9.80
2018-04-30T05:49:47.204Z,10.60
2018-04-30T05:50:47.217Z,9.80
2018-04-30T05:51:47.243Z,10.00
2018-04-30T05:52:47.259Z,9.40
2018-04-30T05:53:47.285Z,10.20
2018-04-30T05:54:47.311Z,10.00
2018-04-30T05:55:47.339Z,9.60
2018-04-30T05:56:47.353Z,10.40
2018-04-30T05:57:47.375Z,11.30
2018-04-30T05:58:47.400Z,12.00
2018-04-30T05:59:47.427Z,11.10
2018-04-30T06:00:47.456Z,10.90
2018-04-30T06:01:47.467Z,11.00
2018-04-30T06:02:47.492Z,10.60
2018-04-30T06:03:47.518Z,11.20
2018-04-30T06:04:47.544Z,10.60
2018-04-30T06:05:47.557Z,10.10
2018-04-30T06:06:47.598Z,10.20
2018-04-30T06:07:47.608Z,9.50
2018-04-30T06:08:47.636Z,10.30
2018-04-30T06:09:47.649Z,10.00
2018-04-30T06:10:47.679Z,9.70
2018-04-30T06:11:47.701Z,10.30
2018-04-30T06:12:47.727Z,9.90
2018-04-30T06:13:47.741Z,9.90
2018-04-30T06:14:47.765Z,9.80
2018-04-30T06:15:47.793Z,10.00
2018-04-30T06:16:47.824Z,9.60
2018-04-30T06:17:47.833Z,10.00
2018-04-30T06:18:47.857Z,9.80
2018-04-30T06:19:47.884Z,9.50
2018-04-30T06:20:47.910Z,9.50
2018-04-30T06:21:47.923Z,9.20
2018-04-30T06:22:47.948Z,9.40
2018-04-30T06:23:47.974Z,9.20
2018-04-30T06:24:48.000Z,9.30
2018-04-30T06:25:48.026Z,8.70
2018-04-30T06:26:48.165Z,8.50
2018-04-30T06:27:48.067Z,8.90
2018-04-30T06:28:48.092Z,8.10
2018-04-30T06:29:48.120Z,8.80
2018-04-30T06:30:48.147Z,8.50
2018-04-30T06:31:48.170Z,8.20
2018-04-30T06:32:48.195Z,8.00
2018-04-30T06:33:48.211Z,8.80
2018-04-30T06:34:48.252Z,8.40
2018-04-30T06:35:48.306Z,8.70
2018-04-30T06:36:48.287Z,8.80
2018-04-30T06:37:48.313Z,7.80
2018-04-30T06:38:48.339Z,7.80
2018-04-30T06:39:48.366Z,7.90
2018-04-30T06:40:48.391Z,7.60
2018-04-30T06:41:48.417Z,8.30
2018-04-30T06:42:48.442Z,7.20
2018-04-30T06:43:48.484Z,7.50
2018-04-30T06:44:48.497Z,7.90
2018-04-30T06:45:48.520Z,7.90
2018-04-30T06:46:48.546Z,7.50
2018-04-30T06:47:48.572Z,7.40
2018-04-30T06:48:48.598Z,9.20
2018-04-30T06:49:48.637Z,8.10
2018-04-30T06:50:48.656Z,7.60
2018-04-30T06:51:48.692Z,7.90
2018-04-30T06:52:48.716Z,8.60
2018-04-30T06:53:48.741Z,8.10
2018-04-30T06:54:48.770Z,7.90
2018-04-30T06:55:48.794Z,8.20
2018-04-30T06:56:48.820Z,8.00
2018-04-30T06:57:48.845Z,8.40
2018-04-30T06:58:48.872Z,9.50
2018-04-30T06:59:48.909Z,8.80
2018-04-30T07:00:48.935Z,8.40
2018-04-30T07:01:48.960Z,9.00
2018-04-30T07:02:48.986Z,8.40
2018-04-30T07:03:49.026Z,8.40
2018-04-30T07:04:49.039Z,8.40
2018-04-30T07:05:49.078Z,9.00
2018-04-30T07:06:49.104Z,8.10
2018-04-30T07:07:49.130Z,9.20
2018-04-30T07:08:49.157Z,8.60
2018-04-30T07:09:49.194Z,8.90
2018-04-30T07:10:49.219Z,9.20
2018-04-30T07:11:49.248Z,8.60
2018-04-30T07:12:49.271Z,9.00
2018-04-30T07:13:49.311Z,9.30
2018-04-30T07:14:49.337Z,9.00
2018-04-30T07:15:49.363Z,8.80
2018-04-30T07:16:49.392Z,8.60
2018-04-30T07:17:49.426Z,8.90
2018-04-30T07:18:49.452Z,9.30
2018-04-30T07:19:49.491Z,9.00
2018-04-30T07:20:49.505Z,9.30
2018-04-30T07:21:49.544Z,8.70
2018-04-30T07:22:49.574Z,8.40
2018-04-30T07:23:49.608Z,8.50
2018-04-30T07:24:49.646Z,8.50
2018-04-30T07:25:49.659Z,9.00
2018-04-30T07:26:49.686Z,9.10
2018-04-30T07:27:49.799Z,9.50
2018-04-30T07:28:49.751Z,9.90
2018-04-30T07:29:49.776Z,9.60
2018-04-30T07:30:49.815Z,8.80
2018-04-30T07:31:49.839Z,9.00
2018-04-30T07:32:49.867Z,8.80
2018-04-30T07:33:49.905Z,9.50
2018-04-30T07:34:49.934Z,8.90
2018-04-30T07:35:49.968Z,9.10
2018-04-30T07:36:49.994Z,9.80
2018-04-30T07:37:50.034Z,9.30
2018-04-30T07:38:50.063Z,9.40
2018-04-30T07:39:50.097Z,8.80
2018-04-30T07:40:50.124Z,9.00
2018-04-30T07:41:50.149Z,8.90
2018-04-30T07:42:50.188Z,9.50
2018-04-30T07:43:50.215Z,9.30
2018-04-30T07:44:50.252Z,9.90
2018-04-30T07:45:50.292Z,9.60
2018-04-30T07:46:50.318Z,9.50
2018-04-30T07:47:50.344Z,9.60
2018-04-30T07:48:50.374Z,9.30
2018-04-30T07:49:50.410Z,9.20
2018-04-30T07:50:50.434Z,8.30
2018-04-30T07:51:50.473Z,9.30
2018-04-30T07:52:50.523Z,9.80
2018-04-30T07:53:50.535Z,9.90
2018-04-30T07:54:50.575Z,9.60
2018-04-30T07:55:50.600Z,9.40
2018-04-30T07:56:50.639Z,9.50
2018-04-30T07:57:50.666Z,10.10
2018-04-30T07:58:50.706Z,9.10
2018-04-30T07:59:50.732Z,9.30
2018-04-30T08:00:50.768Z,10.20
2018-04-30T08:01:50.796Z,10.50
2018-04-30T08:02:50.833Z,10.00
2018-04-30T08:03:50.872Z,9.30
2018-04-30T08:04:50.896Z,9.20
2018-04-30T08:05:50.936Z,10.20
2018-04-30T08:06:50.974Z,10.00
2018-04-30T08:07:51.002Z,9.60
2018-04-30T08:08:51.042Z,9.70
2018-04-30T08:09:51.064Z,9.90
2018-04-30T08:10:51.103Z,9.90
2018-04-30T08:11:51.143Z,10.30
2018-04-30T08:12:51.168Z,10.90
2018-04-30T08:13:51.205Z,15.40
2018-04-30T08:14:51.269Z,13.20
2018-04-30T08:15:51.270Z,11.10
2018-04-30T08:16:51.296Z,10.80
2018-04-30T08:17:51.336Z,11.60
2018-04-30T08:18:51.360Z,12.20
2018-04-30T08:19:51.405Z,11.90
2018-04-30T08:20:51.425Z,11.70
2018-04-30T08:21:51.462Z,11.20
2018-04-30T08:22:51.490Z,11.30
2018-04-30T08:23:51.519Z,11.40
2018-04-30T08:24:51.544Z,11.20
2018-04-30T08:25:51.580Z,10.40
2018-04-30T08:26:51.610Z,11.50
2018-04-30T08:27:51.643Z,11.50
2018-04-30T08:28:51.670Z,11.90
2018-04-30T08:29:51.696Z,11.50
2018-04-30T08:30:51.724Z,10.90
2018-04-30T08:31:51.760Z,10.80
2018-04-30T08:32:51.793Z,11.10
2018-04-30T08:33:51.812Z,11.00
2018-04-30T08:34:51.850Z,11.10
2018-04-30T08:35:51.890Z,10.80
2018-04-30T08:36:51.904Z,11.10
2018-04-30T08:38:52.031Z,11.50
2018-04-30T08:39:51.994Z,10.80
2018-04-30T08:40:52.020Z,10.50
2018-04-30T08:41:52.045Z,10.30
2018-04-30T08:42:52.073Z,10.90
2018-04-30T08:43:52.109Z,10.30
2018-04-30T08:44:52.134Z,11.10
2018-04-30T08:45:52.162Z,10.60
2018-04-30T08:46:52.189Z,11.40
2018-04-30T08:47:52.213Z,10.80
2018-04-30T08:48:52.239Z,11.40
2018-04-30T08:49:52.278Z,10.70
2018-04-30T08:50:52.304Z,10.40
2018-04-30T08:51:52.330Z,11.50
2018-04-30T08:52:52.356Z,14.90
2018-04-30T08:53:52.384Z,12.60
2018-04-30T08:54:52.420Z,12.60
2018-04-30T08:55:52.446Z,11.50
2018-04-30T08:56:52.476Z,12.60
2018-04-30T08:57:52.498Z,11.40
2018-04-30T08:58:52.524Z,11.90
2018-04-30T08:59:52.569Z,11.20
2018-04-30T09:00:52.589Z,11.50
2018-04-30T09:01:52.615Z,12.30
2018-04-30T09:02:52.641Z,12.00
2018-04-30T09:03:52.869Z,10.60
2018-04-30T09:04:52.692Z,10.00
2018-04-30T09:05:52.734Z,10.10
2018-04-30T09:06:52.959Z,10.10
2018-04-30T09:07:52.782Z,9.70
2018-04-30T09:08:52.809Z,10.10
2018-04-30T09:09:52.834Z,9.80
2018-04-30T09:10:52.861Z,10.10
2018-04-30T09:11:52.903Z,9.80
2018-04-30T09:12:52.925Z,10.00
2018-04-30T09:13:52.952Z,9.80
2018-04-30T09:14:53.027Z,9.80
2018-04-30T09:15:53.004Z,10.10
2018-04-30T09:16:53.053Z,8.90
2018-04-30T09:17:53.067Z,8.70
2018-04-30T09:18:53.093Z,8.80
2018-04-30T09:20:53.146Z,8.50
2018-04-30T09:21:53.183Z,7.80
2018-04-30T09:22:53.209Z,8.60
2018-04-30T09:23:53.257Z,8.50
2018-04-30T09:24:53.262Z,9.00
2018-04-30T09:25:53.288Z,8.30
2018-04-30T09:26:53.326Z,8.60
2018-04-30T09:27:53.353Z,8.70
2018-04-30T09:28:53.379Z,9.50
2018-04-30T09:29:53.416Z,8.60
2018-04-30T09:30:53.442Z,8.50
2018-04-30T09:31:53.468Z,8.70
2018-04-30T09:32:53.496Z,8.40
2018-04-30T09:33:53.520Z,8.00
2018-04-30T09:34:53.559Z,8.10
2018-04-30T09:35:53.573Z,8.30
2018-04-30T09:36:53.600Z,8.80
2018-04-30T09:37:53.886Z,8.40
2018-04-30T09:38:53.662Z,9.30
2018-04-30T09:39:53.688Z,8.30
2018-04-30T09:40:53.725Z,8.40
2018-04-30T09:41:53.741Z,8.80
2018-04-30T09:42:53.779Z,8.60
2018-04-30T09:43:53.805Z,9.20
2018-04-30T09:44:53.830Z,8.80
2018-04-30T09:45:53.857Z,8.70
2018-04-30T09:46:53.895Z,9.60
2018-04-30T09:47:53.922Z,9.80
2018-04-30T09:48:53.948Z,9.00
2018-04-30T09:49:53.972Z,9.60
2018-04-30T09:50:53.999Z,9.00
2018-04-30T09:51:54.042Z,9.20
2018-04-30T09:52:54.065Z,10.00
2018-04-30T09:53:54.090Z,9.70
2018-04-30T09:54:54.117Z,9.80
2018-04-30T09:55:54.153Z,9.90
2018-04-30T09:56:54.182Z,9.60
2018-04-30T09:57:54.230Z,9.40
2018-04-30T09:58:54.231Z,9.70
2018-04-30T09:59:54.271Z,9.40
2018-04-30T10:00:54.296Z,9.90
2018-04-30T10:01:54.322Z,9.50
2018-04-30T10:02:54.361Z,9.50
2018-04-30T10:03:54.387Z,11.10
2018-04-30T10:04:54.412Z,9.80
2018-04-30T10:05:54.440Z,11.20
2018-04-30T10:06:54.477Z,11.10
2018-04-30T10:07:54.505Z,11.10
2018-04-30T10:08:54.541Z,11.30
2018-04-30T10:09:54.569Z,11.10
2018-04-30T10:10:54.593Z,11.20
2018-04-30T10:11:54.633Z,11.60
2018-04-30T10:12:54.670Z,10.20
2018-04-30T10:13:54.685Z,10.60
2018-04-30T10:14:54.725Z,10.40
2018-04-30T10:15:54.748Z,10.00
2018-04-30T10:16:54.988Z,9.30
2018-04-30T10:17:54.813Z,8.20
2018-04-30T10:18:54.839Z,8.70
2018-04-30T10:19:54.889Z,8.80
2018-04-30T10:20:54.906Z,8.10
2018-04-30T10:21:54.935Z,8.60
2018-04-30T10:22:54.968Z,8.40
2018-04-30T10:23:55.018Z,8.10
2018-04-30T10:24:55.032Z,7.80
2018-04-30T10:25:55.057Z,7.80
2018-04-30T10:26:55.087Z,7.00
2018-04-30T10:27:55.123Z,7.20
2018-04-30T10:28:55.153Z,6.50
2018-04-30T10:29:55.187Z,6.40
2018-04-30T10:30:55.212Z,5.60
2018-04-30T10:31:55.240Z,5.10
2018-04-30T10:32:55.277Z,5.10
2018-04-30T10:33:55.303Z,4.70
2018-04-30T10:34:55.329Z,4.50
2018-04-30T10:35:55.367Z,4.10
2018-04-30T10:36:55.392Z,4.00
2018-04-30T10:37:55.519Z,3.70
2018-04-30T10:38:55.445Z,3.80
2018-04-30T10:39:55.489Z,3.70
2018-04-30T10:40:55.510Z,3.70
2018-04-30T10:41:55.536Z,3.50
2018-04-30T10:42:55.586Z,3.60
2018-04-30T10:43:55.599Z,3.30
2018-04-30T10:44:55.625Z,3.60
2018-04-30T10:45:55.729Z,3.70
2018-04-30T10:46:55.691Z,3.70
2018-04-30T10:47:55.717Z,5.90
2018-04-30T10:48:55.743Z,3.20
2018-04-30T10:49:55.770Z,3.10
2018-04-30T10:50:55.806Z,3.10
2018-04-30T10:51:55.833Z,2.80
2018-04-30T10:52:55.861Z,2.90
2018-04-30T10:53:55.897Z,2.90
2018-04-30T10:54:55.924Z,3.20
2018-04-30T10:55:55.973Z,2.90
2018-04-30T10:56:55.988Z,2.90
2018-04-30T10:57:56.013Z,3.00
2018-04-30T10:58:56.055Z,2.90
2018-04-30T10:59:56.079Z,2.70
2018-04-30T11:00:56.104Z,2.90
2018-04-30T11:01:56.143Z,3.20
2018-04-30T11:02:56.168Z,3.40
2018-04-30T11:03:56.209Z,3.00
2018-04-30T11:04:56.233Z,3.10
2018-04-30T11:05:56.261Z,4.20
2018-04-30T11:06:56.297Z,3.80
2018-04-30T11:07:56.324Z,3.20
2018-04-30T11:08:56.349Z,3.00
2018-04-30T11:09:56.388Z,2.50
2018-04-30T11:10:56.414Z,3.00
2018-04-30T11:11:56.440Z,3.00
2018-04-30T11:12:56.480Z,3.10
2018-04-30T11:14:56.530Z,3.10
2018-04-30T11:15:56.568Z,2.80
2018-04-30T11:16:56.597Z,3.00
2018-04-30T11:17:56.823Z,2.70
2018-04-30T11:18:56.647Z,2.70
2018-04-30T11:19:56.686Z,2.90
2018-04-30T11:20:56.711Z,2.90
2018-04-30T11:21:56.736Z,3.00
2018-04-30T11:22:56.762Z,2.90
2018-04-30T11:23:56.801Z,2.60
2018-04-30T11:24:56.828Z,2.70
2018-04-30T11:25:56.854Z,2.50
2018-04-30T11:26:56.880Z,2.60
2018-04-30T11:27:56.917Z,2.40
2018-04-30T11:28:56.943Z,2.80
2018-04-30T11:29:56.969Z,2.70
2018-04-30T11:30:57.008Z,2.40
2018-04-30T11:31:57.021Z,2.90
2018-04-30T11:32:57.048Z,3.00
2018-04-30T11:33:57.087Z,2.40
2018-04-30T11:34:57.113Z,2.40
2018-04-30T11:35:57.138Z,2.40
2018-04-30T11:36:57.165Z,2.30
2018-04-30T11:37:57.202Z,3.30
2018-04-30T11:38:57.241Z,2.80
2018-04-30T11:39:57.272Z,3.40
2018-04-30T11:40:57.279Z,3.10
2018-04-30T11:41:57.305Z,4.30
2018-04-30T11:42:57.332Z,2.30
2018-04-30T11:43:57.371Z,2.20
2018-04-30T11:44:57.404Z,2.50
2018-04-30T11:45:57.427Z,2.20
2018-04-30T11:46:57.448Z,2.40
2018-04-30T11:47:57.479Z,2.00
2018-04-30T11:48:57.512Z,2.00
2018-04-30T11:49:57.539Z,2.20
2018-04-30T11:50:57.564Z,1.90
2018-04-30T11:52:57.629Z,1.90
2018-04-30T11:53:57.656Z,1.90
2018-04-30T11:54:57.681Z,2.20
2018-04-30T11:55:57.707Z,1.60
2018-04-30T11:56:57.734Z,1.70
2018-04-30T11:57:57.772Z,1.60
2018-04-30T11:58:57.798Z,1.70
2018-04-30T11:59:57.832Z,1.60
2018-04-30T12:00:57.855Z,1.50
2018-04-30T12:01:57.888Z,1.60
2018-04-30T12:02:57.914Z,1.70
2018-04-30T12:03:57.940Z,1.40
2018-04-30T12:04:58.063Z,1.70
2018-04-30T12:05:58.004Z,1.60
2018-04-30T12:06:58.030Z,1.40
2018-04-30T12:07:58.069Z,1.30
2018-04-30T12:08:58.095Z,1.10
2018-04-30T12:09:58.121Z,1.40
2018-04-30T12:10:58.225Z,1.20
2018-04-30T12:11:58.184Z,1.30
2018-04-30T12:12:58.210Z,1.50
2018-04-30T12:13:58.240Z,1.20
2018-04-30T12:14:58.276Z,1.40
2018-04-30T12:15:58.292Z,1.10
2018-04-30T12:16:58.327Z,1.10
2018-04-30T12:17:58.354Z,1.20
2018-04-30T12:18:58.380Z,1.20
2018-04-30T12:19:58.406Z,1.30
2018-04-30T12:20:58.478Z,1.30
2018-04-30T12:21:58.551Z,1.20
2018-04-30T12:22:58.496Z,1.10
2018-04-30T12:23:58.521Z,1.50
2018-04-30T12:24:58.548Z,1.10
2018-04-30T12:25:58.573Z,1.40
2018-04-30T12:26:58.601Z,1.20
2018-04-30T12:27:58.625Z,1.10
2018-04-30T12:28:58.664Z,1.20
2018-04-30T12:29:58.690Z,1.00
2018-04-30T12:30:58.917Z,1.00
2018-04-30T12:31:58.742Z,1.00
2018-04-30T12:32:58.770Z,1.10
2018-04-30T12:34:58.833Z,1.20
2018-04-30T12:35:58.897Z,1.30
2018-04-30T12:36:58.884Z,1.20
2018-04-30T12:37:58.911Z,1.20
2018-04-30T12:38:58.948Z,1.30
2018-04-30T12:39:58.974Z,1.00
2018-04-30T12:40:59.001Z,0.90
2018-04-30T12:41:59.051Z,1.10
2018-04-30T12:42:59.064Z,0.80
2018-04-30T12:43:59.101Z,1.10
2018-04-30T12:44:59.130Z,0.80
2018-04-30T12:45:59.156Z,1.00
2018-04-30T12:46:59.194Z,0.90
2018-04-30T12:47:59.219Z,0.90
2018-04-30T12:48:59.246Z,1.00
2018-04-30T12:49:59.284Z,0.90
2018-04-30T12:50:59.310Z,0.90
2018-04-30T12:51:59.347Z,1.00
2018-04-30T12:52:59.374Z,1.20
2018-04-30T12:53:59.401Z,0.90
2018-04-30T12:54:59.439Z,1.10
2018-04-30T12:55:59.474Z,1.00
2018-04-30T12:56:59.504Z,0.90
2018-04-30T12:57:59.533Z,1.00
2018-04-30T12:58:59.567Z,1.10
2018-04-30T12:59:59.593Z,0.90
2018-04-30T13:00:59.632Z,0.90
2018-04-30T13:01:59.658Z,0.90
2018-04-30T13:02:59.696Z,1.00
2018-04-30T13:03:59.735Z,1.10
2018-04-30T13:04:59.761Z,1.10
2018-04-30T13:05:59.800Z,1.00
2018-04-30T13:06:59.837Z,0.90
2018-04-30T13:08:00.216Z,0.80
2018-04-30T13:08:59.907Z,1.00
2018-04-30T13:09:59.949Z,0.80
2018-04-30T13:10:59.966Z,0.90
2018-04-30T13:12:00.005Z,0.90
2018-04-30T13:13:00.043Z,1.00
2018-04-30T13:14:00.082Z,1.20